Time;durP1;ratioP1;P1;durP2;ratioP2;P2;SDS_P1;SDS_P2;PMS_P1;PMS_P2;Temp;Humidity;BMP_temperature;BMP_pressure;BME280_temperature;BME280_humidity;BME280_pressure;Samples;Min_cycle;Max_cycle;Signal;HPM_P1;HPM_P2
2021/03/14 00:02:21;;;;;;;0.73;0.20;;;19.40;37.50;;;;;;5046822;28;20040;-82
2021/03/14 00:05:06;;;;;;;1.88;0.20;;;19.40;37.60;;;;;;5048652;28;20562;-81
2021/03/14 00:07:32;;;;;;;0.40;0.10;;;19.40;37.50;;;;;;5050676;28;20033;-81
2021/03/14 00:09:58;;;;;;;1.55;0.13;;;19.40;37.50;;;;;;5043591;28;20032;-82
2021/03/14 00:12:24;;;;;;;0.45;0.10;;;19.40;37.50;;;;;;5044463;28;20059;-81
2021/03/14 00:14:49;;;;;;;0.98;0.20;;;19.40;37.50;;;;;;5034458;28;20044;-82
2021/03/14 00:17:15;;;;;;;1.15;0.20;;;19.40;37.40;;;;;;5050965;28;20508;-82
2021/03/14 00:19:59;;;;;;;2.00;0.20;;;19.30;37.40;;;;;;5049521;28;20064;-82
2021/03/14 00:22:25;;;;;;;0.50;0.10;;;19.30;37.40;;;;;;5043548;28;20017;-82
2021/03/14 00:24:51;;;;;;;1.52;0.30;;;19.30;37.50;;;;;;5048916;28;20643;-82
2021/03/14 00:27:16;;;;;;;2.03;0.30;;;19.30;37.40;;;;;;5046596;28;20063;-82
2021/03/14 00:30:01;;;;;;;0.65;0.10;;;19.30;37.50;;;;;;5045266;28;20125;-82
2021/03/14 00:32:26;;;;;;;1.15;0.10;;;19.30;37.60;;;;;;5046854;28;20789;-82
2021/03/14 00:34:52;;;;;;;1.45;0.17;;;19.30;37.50;;;;;;5043102;28;20730;-82
2021/03/14 00:37:18;;;;;;;0.40;0.10;;;19.30;37.60;;;;;;5029711;28;20021;-82
2021/03/14 00:39:43;;;;;;;0.40;0.10;;;19.30;37.60;;;;;;5031068;28;20369;-82
2021/03/14 00:42:09;;;;;;;0.55;0.10;;;19.30;37.60;;;;;;5044824;28;20470;-82
2021/03/14 00:44:53;;;;;;;1.20;0.10;;;19.30;37.50;;;;;;5042749;28;20455;-82
2021/03/14 00:47:19;;;;;;;0.47;0.10;;;19.30;37.50;;;;;;5049113;28;20025;-82
2021/03/14 00:50:07;;;;;;;0.50;0.13;;;19.20;37.40;;;;;;5047755;28;20040;-82
2021/03/14 00:52:33;;;;;;;0.47;0.10;;;19.20;37.50;;;;;;5032601;28;20464;-82
2021/03/14 00:54:59;;;;;;;1.45;0.20;;;19.20;37.50;;;;;;5047264;28;20033;-82
2021/03/14 00:57:25;;;;;;;0.47;0.10;;;19.20;37.60;;;;;;5050680;28;20040;-81
2021/03/14 00:59:51;;;;;;;2.08;0.00;;;19.30;37.60;;;;;;5041927;28;20085;-82
2021/03/14 01:02:16;;;;;;;1.15;0.20;;;19.20;37.50;;;;;;5042446;28;20033;-81
2021/03/14 01:05:00;;;;;;;0.50;0.10;;;19.20;37.40;;;;;;5047769;28;20048;-81
2021/03/14 01:07:26;;;;;;;1.00;0.20;;;19.20;37.50;;;;;;5042867;28;20496;-81
2021/03/14 01:09:52;;;;;;;0.43;0.10;;;19.20;37.50;;;;;;5049749;28;20056;-81
2021/03/14 01:12:17;;;;;;;1.40;0.20;;;19.20;37.50;;;;;;5042706;28;20029;-81
2021/03/14 01:15:02;;;;;;;1.33;0.08;;;19.20;37.60;;;;;;5044169;28;20060;-81
2021/03/14 01:17:28;;;;;;;1.50;0.10;;;19.20;37.50;;;;;;5044444;28;20021;-81
2021/03/14 01:19:53;;;;;;;1.90;0.22;;;19.20;37.50;;;;;;5048807;28;20505;-81
2021/03/14 01:22:19;;;;;;;0.20;0.10;;;19.20;37.50;;;;;;5024950;28;20082;-81
2021/03/14 01:24:44;;;;;;;0.63;0.10;;;19.20;37.50;;;;;;5042683;28;20167;-81
2021/03/14 01:27:10;;;;;;;1.27;0.10;;;19.20;37.50;;;;;;5028214;28;20040;-81
2021/03/14 01:29:39;;;;;;;0.98;0.10;;;19.20;37.40;;;;;;5041186;28;20064;-81
2021/03/14 01:32:05;;;;;;;0.35;0.10;;;19.20;38.00;;;;;;5042259;28;20095;-81
2021/03/14 01:34:50;;;;;;;0.85;0.10;;;19.10;37.50;;;;;;5042417;28;20084;-82
2021/03/14 01:37:17;;;;;;;1.77;0.20;;;19.10;37.40;;;;;;5040326;28;20762;-83
2021/03/14 01:40:03;;;;;;;1.08;0.10;;;19.10;37.50;;;;;;5047198;28;20036;-83
2021/03/14 01:42:30;;;;;;;0.65;0.10;;;19.10;37.50;;;;;;5039991;28;20056;-81
2021/03/14 01:44:56;;;;;;;0.73;0.10;;;19.10;37.50;;;;;;5021965;28;20500;-81
2021/03/14 01:47:45;;;;;;;2.40;0.10;;;19.10;37.50;;;;;;5051334;28;20104;-81
2021/03/14 01:50:15;;;;;;;0.30;0.00;;;19.10;37.40;;;;;;5047905;28;20074;-81
2021/03/14 01:52:56;;;;;;;1.70;0.10;;;19.10;37.50;;;;;;5043741;28;20021;-81
2021/03/14 01:55:23;;;;;;;0.80;0.10;;;19.10;37.50;;;;;;5048446;28;20542;-81
2021/03/14 01:57:52;;;;;;;1.58;0.13;;;19.10;37.50;;;;;;5048549;28;20029;-81
2021/03/14 02:00:25;;;;;;;0.43;0.10;;;19.10;37.50;;;;;;5047937;28;20044;-81
2021/03/14 02:02:50;;;;;;;0.30;0.10;;;19.10;37.60;;;;;;5049358;28;20071;-81
2021/03/14 02:05:18;;;;;;;0.40;0.10;;;19.10;37.60;;;;;;5045787;28;20041;-81
2021/03/14 02:07:49;;;;;;;0.60;0.00;;;19.10;37.70;;;;;;5038690;28;20060;-81
2021/03/14 02:10:19;;;;;;;0.75;0.10;;;19.10;37.70;;;;;;5025430;28;20029;-80
2021/03/14 02:13:18;;;;;;;0.60;0.10;;;19.10;37.70;;;;;;5043484;28;20468;-81
2021/03/14 02:16:04;;;;;;;0.47;0.10;;;19.00;37.70;;;;;;5041150;28;20041;-81
2021/03/14 02:18:55;;;;;;;1.30;0.10;;;19.10;37.70;;;;;;5045883;28;20091;-80
2021/03/14 02:21:21;;;;;;;1.25;0.13;;;19.10;37.60;;;;;;5043542;28;20469;-80
2021/03/14 02:24:14;;;;;;;1.85;0.10;;;19.00;37.60;;;;;;5049012;28;20051;-81
2021/03/14 02:26:43;;;;;;;1.10;0.10;;;19.10;37.60;;;;;;5042252;28;20032;-81
2021/03/14 02:29:11;;;;;;;0.43;0.00;;;19.10;37.60;;;;;;5047374;28;20029;-81
2021/03/14 02:31:57;;;;;;;0.43;0.10;;;19.00;37.60;;;;;;5041074;28;20040;-81
2021/03/14 02:34:53;;;;;;;0.95;0.00;;;19.00;37.60;;;;;;5046422;28;20010;-81
2021/03/14 02:37:41;;;;;;;0.52;0.10;;;19.00;37.60;;;;;;5048467;28;20044;-82
2021/03/14 02:40:08;;;;;;;2.38;0.10;;;19.00;37.50;;;;;;5024729;28;20037;-81
2021/03/14 02:42:53;;;;;;;0.30;0.10;;;19.00;37.60;;;;;;5047068;28;20750;-81
2021/03/14 02:45:20;;;;;;;0.22;0.10;;;19.00;37.60;;;;;;5044731;28;20037;-81
2021/03/14 02:47:45;;;;;;;0.80;0.10;;;19.00;37.70;;;;;;5047489;28;20040;-81
2021/03/14 02:50:17;;;;;;;0.30;0.10;;;19.00;37.60;;;;;;5041942;28;20025;-81
2021/03/14 02:52:44;;;;;;;0.55;0.10;;;19.00;37.60;;;;;;5046166;28;20504;-81
2021/03/14 02:55:11;;;;;;;0.32;0.08;;;19.00;37.60;;;;;;5039695;28;20063;-81
2021/03/14 02:57:56;;;;;;;0.55;0.10;;;18.90;37.50;;;;;;5044098;28;20404;-81
2021/03/14 03:00:25;;;;;;;0.73;0.00;;;19.00;37.60;;;;;;5045134;28;20025;-80
2021/03/14 03:02:53;;;;;;;0.60;0.10;;;18.90;37.60;;;;;;5045658;28;20806;-81
2021/03/14 03:05:21;;;;;;;0.85;0.10;;;19.00;37.60;;;;;;5043494;28;20025;-81
2021/03/14 03:08:06;;;;;;;0.77;0.13;;;18.90;37.60;;;;;;5048021;28;20102;-80
2021/03/14 03:10:40;;;;;;;0.50;0.10;;;18.90;37.50;;;;;;5050372;28;20030;-81
2021/03/14 03:13:07;;;;;;;0.32;0.00;;;18.90;37.50;;;;;;5045470;28;20025;-82
2021/03/14 03:15:33;;;;;;;0.30;0.10;;;18.90;37.60;;;;;;5046677;28;20053;-82
2021/03/14 03:17:59;;;;;;;1.08;0.13;;;18.90;37.60;;;;;;5042856;28;20025;-81
2021/03/14 03:20:27;;;;;;;0.45;0.00;;;18.90;37.70;;;;;;5047673;28;20037;-81
2021/03/14 03:22:54;;;;;;;1.00;0.10;;;18.90;37.60;;;;;;5045718;28;20564;-82
2021/03/14 03:25:20;;;;;;;0.73;0.10;;;18.90;37.60;;;;;;5051212;28;20536;-82
2021/03/14 03:27:46;;;;;;;0.82;0.10;;;18.90;37.60;;;;;;5023528;28;20503;-81
2021/03/14 03:30:15;;;;;;;0.73;0.10;;;18.90;37.60;;;;;;5046778;28;20039;-81
2021/03/14 03:32:41;;;;;;;0.45;0.10;;;18.90;37.60;;;;;;5046883;28;20488;-82
2021/03/14 03:35:09;;;;;;;1.23;0.05;;;18.90;37.60;;;;;;5026248;28;20089;-81
2021/03/14 03:37:35;;;;;;;0.47;0.10;;;18.90;37.60;;;;;;5044012;28;20642;-81
2021/03/14 03:40:04;;;;;;;0.82;0.00;;;18.90;37.60;;;;;;5042702;28;20091;-82
2021/03/14 03:42:32;;;;;;;1.83;0.10;;;18.90;37.60;;;;;;5038941;28;20029;-81
2021/03/14 03:45:00;;;;;;;1.05;0.00;;;18.90;37.40;;;;;;5063724;28;20044;-81
2021/03/14 03:47:27;;;;;;;1.02;0.10;;;18.90;37.50;;;;;;5049377;28;20035;-82
2021/03/14 03:49:55;;;;;;;0.80;0.10;;;18.90;37.50;;;;;;5041658;28;20044;-81
2021/03/14 03:52:22;;;;;;;0.32;0.00;;;18.90;37.40;;;;;;5050545;28;20104;-81
2021/03/14 03:54:49;;;;;;;0.77;0.20;;;18.90;37.50;;;;;;5046476;28;20076;-81
2021/03/14 03:57:16;;;;;;;1.63;0.30;;;18.90;37.40;;;;;;5045368;28;20037;-81
2021/03/14 03:59:42;;;;;;;0.65;0.15;;;18.90;37.50;;;;;;5046269;28;20091;-81
2021/03/14 04:02:10;;;;;;;0.50;0.10;;;18.90;37.40;;;;;;5046789;28;20109;-82
2021/03/14 04:04:39;;;;;;;0.75;0.10;;;18.90;37.50;;;;;;5050763;28;20688;-81
2021/03/14 04:07:05;;;;;;;0.70;0.10;;;18.80;37.50;;;;;;5043413;28;20079;-81
2021/03/14 04:09:31;;;;;;;0.35;0.00;;;18.80;37.60;;;;;;5046201;28;20094;-81
2021/03/14 04:11:58;;;;;;;0.25;0.00;;;18.80;37.50;;;;;;5026571;28;20026;-81
2021/03/14 04:14:26;;;;;;;0.40;0.10;;;18.80;37.50;;;;;;5045629;28;20029;-82
2021/03/14 04:16:54;;;;;;;0.22;0.10;;;18.80;37.50;;;;;;5044679;28;20362;-82
2021/03/14 04:19:22;;;;;;;0.73;0.10;;;18.80;37.50;;;;;;5047972;28;20032;-82
2021/03/14 04:21:50;;;;;;;0.90;0.10;;;18.80;37.40;;;;;;5050460;28;20560;-81
2021/03/14 04:24:17;;;;;;;0.40;0.00;;;18.90;37.50;;;;;;5029718;28;20156;-82
2021/03/14 04:26:45;;;;;;;0.40;0.00;;;18.80;37.50;;;;;;5047037;28;20033;-81
2021/03/14 04:29:12;;;;;;;0.68;0.10;;;18.80;37.50;;;;;;5069087;28;20037;-81
2021/03/14 04:31:43;;;;;;;0.80;0.00;;;18.80;37.50;;;;;;5044873;28;20489;-81
2021/03/14 04:34:10;;;;;;;0.97;0.10;;;18.80;37.50;;;;;;5032266;28;20536;-81
2021/03/14 04:36:38;;;;;;;1.05;0.17;;;18.80;37.50;;;;;;5033096;28;20025;-81
2021/03/14 04:39:05;;;;;;;0.50;0.10;;;18.80;37.50;;;;;;5047310;28;20036;-82
2021/03/14 04:41:33;;;;;;;0.40;0.00;;;18.80;37.50;;;;;;5043995;28;20029;-80
2021/03/14 04:43:59;;;;;;;1.42;0.15;;;18.80;37.50;;;;;;5045325;28;20076;-81
2021/03/14 04:46:25;;;;;;;0.70;0.00;;;18.80;37.60;;;;;;5047766;28;20025;-81
2021/03/14 04:48:56;;;;;;;1.10;0.10;;;18.80;37.60;;;;;;5048097;28;20052;-80
2021/03/14 04:51:27;;;;;;;0.85;0.10;;;18.80;37.60;;;;;;5046970;28;20490;-80
2021/03/14 04:53:55;;;;;;;0.20;0.00;;;18.80;37.60;;;;;;5044704;28;20095;-81
2021/03/14 04:56:22;;;;;;;0.35;0.10;;;18.80;37.60;;;;;;5047834;28;20079;-81
2021/03/14 04:58:49;;;;;;;1.20;0.03;;;18.80;37.60;;;;;;5046416;28;20036;-80
2021/03/14 05:01:18;;;;;;;0.82;0.10;;;18.70;37.50;;;;;;5042335;28;20029;-79
2021/03/14 05:03:45;;;;;;;0.68;0.10;;;18.70;37.50;;;;;;5046964;28;20029;-81
2021/03/14 05:06:14;;;;;;;2.58;0.10;;;18.80;37.50;;;;;;5068882;28;20139;-81
2021/03/14 05:08:42;;;;;;;0.63;0.10;;;18.80;37.50;;;;;;5027872;28;20029;-81
2021/03/14 05:11:08;;;;;;;0.90;0.08;;;18.70;37.50;;;;;;5042813;28;20090;-80
2021/03/14 05:13:34;;;;;;;0.43;0.10;;;18.80;37.50;;;;;;5050492;28;20389;-81
2021/03/14 05:16:01;;;;;;;0.32;0.10;;;18.80;37.50;;;;;;5024801;28;20675;-81
2021/03/14 05:18:27;;;;;;;0.85;0.10;;;18.80;37.50;;;;;;5040267;28;20029;-81
2021/03/14 05:20:53;;;;;;;0.40;0.00;;;18.70;37.50;;;;;;5046365;28;20032;-81
2021/03/14 05:23:19;;;;;;;0.60;0.03;;;18.70;37.50;;;;;;5031315;28;20503;-81
2021/03/14 05:25:45;;;;;;;0.45;0.20;;;18.70;37.50;;;;;;5044105;28;20064;-80
2021/03/14 05:28:13;;;;;;;0.95;0.10;;;18.70;37.60;;;;;;5042257;28;20040;-81
2021/03/14 05:30:39;;;;;;;0.40;0.10;;;18.70;37.60;;;;;;5044174;28;20037;-81
2021/03/14 05:33:04;;;;;;;1.75;0.10;;;18.70;37.50;;;;;;5042983;28;20030;-81
2021/03/14 05:35:32;;;;;;;0.38;0.10;;;18.70;37.60;;;;;;5044486;28;20017;-81
2021/03/14 05:38:00;;;;;;;1.10;0.17;;;18.70;37.60;;;;;;5044815;28;20036;-81
2021/03/14 05:40:27;;;;;;;1.50;0.10;;;18.70;37.50;;;;;;5040381;28;20397;-81
2021/03/14 05:42:53;;;;;;;0.73;0.10;;;18.70;37.60;;;;;;5027450;28;20029;-80
2021/03/14 05:45:20;;;;;;;0.65;0.00;;;18.70;37.60;;;;;;5048365;28;20120;-81
2021/03/14 05:47:47;;;;;;;0.40;0.00;;;18.70;37.60;;;;;;5045391;28;20040;-80
2021/03/14 05:50:20;;;;;;;1.02;0.08;;;18.60;37.60;;;;;;5040888;28;20044;-80
2021/03/14 05:52:47;;;;;;;1.38;0.10;;;18.70;37.70;;;;;;5026945;28;20021;-81
2021/03/14 05:55:19;;;;;;;0.35;0.03;;;18.70;37.70;;;;;;5041718;28;20083;-82
2021/03/14 05:57:47;;;;;;;0.38;0.00;;;18.70;37.70;;;;;;5024828;28;20766;-81
2021/03/14 06:00:16;;;;;;;0.77;0.10;;;18.70;37.70;;;;;;5044443;28;20111;-82
2021/03/14 06:02:43;;;;;;;1.35;0.00;;;18.70;37.70;;;;;;5051777;28;20088;-82
2021/03/14 06:05:11;;;;;;;0.30;0.00;;;18.70;37.60;;;;;;5024918;28;20035;-82
2021/03/14 06:07:36;;;;;;;0.90;0.10;;;18.70;37.60;;;;;;5049911;28;20041;-82
2021/03/14 06:10:03;;;;;;;0.40;0.00;;;18.70;37.60;;;;;;5049774;28;20035;-81
2021/03/14 06:12:32;;;;;;;0.25;0.08;;;18.60;37.60;;;;;;5028527;28;20052;-81
2021/03/14 06:14:57;;;;;;;0.55;0.10;;;18.70;37.60;;;;;;5042083;28;20029;-82
2021/03/14 06:17:23;;;;;;;1.25;0.20;;;18.60;37.60;;;;;;5047618;28;20124;-82
2021/03/14 06:19:49;;;;;;;0.73;0.10;;;18.60;37.70;;;;;;5046863;28;20048;-81
2021/03/14 06:22:19;;;;;;;1.60;0.15;;;18.60;37.60;;;;;;5048468;28;20139;-81
2021/03/14 06:24:45;;;;;;;0.63;0.10;;;18.60;37.50;;;;;;5047379;28;20565;-81
2021/03/14 06:27:11;;;;;;;0.70;0.10;;;18.70;37.50;;;;;;5024597;28;20092;-81
2021/03/14 06:29:39;;;;;;;0.40;0.10;;;18.70;37.50;;;;;;5046177;28;20100;-80
2021/03/14 06:32:05;;;;;;;1.35;0.10;;;18.60;37.50;;;;;;5041139;28;20711;-81
2021/03/14 06:34:37;;;;;;;0.40;0.10;;;18.60;37.50;;;;;;5047764;28;20024;-80
2021/03/14 06:37:15;;;;;;;1.05;0.08;;;18.60;37.50;;;;;;5046692;28;20025;-80
2021/03/14 06:39:46;;;;;;;0.75;0.10;;;18.70;37.60;;;;;;5027424;28;20154;-80
2021/03/14 06:42:30;;;;;;;0.65;0.10;;;18.70;37.50;;;;;;5051310;28;20085;-81
2021/03/14 06:45:18;;;;;;;0.68;0.10;;;18.60;37.50;;;;;;5050286;28;20029;-80
2021/03/14 06:47:49;;;;;;;1.45;0.10;;;18.60;37.50;;;;;;5041590;28;20508;-80
2021/03/14 06:50:40;;;;;;;0.40;0.00;;;18.60;38.10;;;;;;5027679;28;20029;-80
2021/03/14 06:53:09;;;;;;;0.80;0.05;;;18.60;37.50;;;;;;5044588;28;20918;-81
2021/03/14 06:55:36;;;;;;;2.72;0.10;;;18.60;37.50;;;;;;5028775;28;20045;-81
2021/03/14 06:58:19;;;;;;;0.82;0.10;;;18.60;37.50;;;;;;5045829;28;20033;-80
2021/03/14 07:01:19;;;;;;;0.45;0.00;;;18.70;37.50;;;;;;5045425;28;20396;-80
2021/03/14 07:03:51;;;;;;;0.60;0.00;;;18.60;37.40;;;;;;5047101;28;20029;-81
2021/03/14 07:06:25;;;;;;;1.35;0.10;;;18.70;37.50;;;;;;5040931;28;20393;-81
2021/03/14 07:08:57;;;;;;;3.00;0.15;;;18.60;37.50;;;;;;5041389;28;20120;-81
2021/03/14 07:11:35;;;;;;;1.52;0.10;;;18.70;37.50;;;;;;5047256;28;20560;-81
2021/03/14 07:14:03;;;;;;;0.47;0.03;;;18.70;37.50;;;;;;5027273;28;20056;-81
2021/03/14 07:16:43;;;;;;;1.63;0.10;;;18.60;37.60;;;;;;5044910;28;20494;-81
2021/03/14 07:19:12;;;;;;;1.58;0.20;;;18.60;37.60;;;;;;5046837;28;20036;-81
2021/03/14 07:21:38;;;;;;;0.25;0.10;;;18.60;37.90;;;;;;5054044;28;20373;-82
2021/03/14 07:24:05;;;;;;;2.65;0.10;;;18.60;37.90;;;;;;5044256;28;20052;-82
2021/03/14 07:26:45;;;;;;;0.20;0.00;;;18.50;38.20;;;;;;5028221;28;20067;-83
2021/03/14 07:29:12;;;;;;;2.28;0.22;;;18.60;38.30;;;;;;5044677;28;20524;-80
2021/03/14 07:31:38;;;;;;;0.93;0.13;;;18.60;38.10;;;;;;5047021;28;20065;-81
2021/03/14 07:34:05;;;;;;;0.70;0.03;;;18.60;38.20;;;;;;5051510;28;20029;-81
2021/03/14 07:36:31;;;;;;;1.17;0.10;;;18.60;38.20;;;;;;5046953;28;20036;-81
2021/03/14 07:39:00;;;;;;;0.50;0.10;;;18.60;38.30;;;;;;5047779;28;20084;-80
2021/03/14 07:41:28;;;;;;;1.40;0.10;;;18.60;38.30;;;;;;5046090;28;20036;-80
2021/03/14 07:43:53;;;;;;;0.80;0.17;;;18.60;38.30;;;;;;5051840;28;20040;-81
2021/03/14 07:46:23;;;;;;;3.10;0.30;;;18.60;38.30;;;;;;5028977;28;20041;-81
2021/03/14 07:48:51;;;;;;;3.70;0.13;;;18.50;38.30;;;;;;5046972;28;20032;-81
2021/03/14 07:51:20;;;;;;;0.93;0.10;;;18.50;38.20;;;;;;5039772;28;20045;-80
2021/03/14 07:53:46;;;;;;;3.65;0.20;;;18.50;38.20;;;;;;5045695;28;20112;-80
2021/03/14 07:56:12;;;;;;;0.82;0.10;;;18.50;38.20;;;;;;5041516;28;20445;-82
2021/03/14 07:58:37;;;;;;;0.65;0.13;;;18.50;38.30;;;;;;5030380;28;20132;-81
2021/03/14 08:01:22;;;;;;;1.27;0.10;;;18.50;38.20;;;;;;5043551;28;20060;-81
2021/03/14 08:03:48;;;;;;;1.58;0.10;;;18.50;38.10;;;;;;5048532;28;20272;-82
2021/03/14 08:06:13;;;;;;;1.85;0.20;;;18.60;38.10;;;;;;5049179;28;20104;-82
2021/03/14 08:08:39;;;;;;;1.30;0.20;;;18.60;38.00;;;;;;5032192;28;20044;-82
2021/03/14 08:11:06;;;;;;;0.47;0.25;;;18.60;37.90;;;;;;5047185;28;20037;-82
2021/03/14 08:13:33;;;;;;;1.02;0.20;;;18.60;37.80;;;;;;5048108;28;20588;-81
2021/03/14 08:16:00;;;;;;;2.42;0.20;;;18.50;37.80;;;;;;5036805;28;20030;-82
2021/03/14 08:18:34;;;;;;;0.80;0.10;;;18.50;37.80;;;;;;5026317;28;20029;-82
2021/03/14 08:20:59;;;;;;;0.95;0.10;;;18.50;37.80;;;;;;5032170;28;20028;-83
2021/03/14 08:23:40;;;;;;;0.98;0.20;;;18.50;37.80;;;;;;5028001;28;20025;-82
2021/03/14 08:26:15;;;;;;;1.80;0.25;;;18.50;37.70;;;;;;5050380;28;20044;-82
2021/03/14 08:28:58;;;;;;;1.15;0.10;;;18.50;37.70;;;;;;5047844;28;20107;-82
2021/03/14 08:31:40;;;;;;;1.48;0.10;;;18.50;38.30;;;;;;5048964;28;20034;-82
2021/03/14 08:34:08;;;;;;;0.77;0.17;;;18.50;37.70;;;;;;5050567;28;20029;-82
2021/03/14 08:36:42;;;;;;;1.80;0.20;;;18.50;37.80;;;;;;5026741;28;20068;-82
2021/03/14 08:39:34;;;;;;;0.85;0.20;;;18.50;37.80;;;;;;5025378;28;20021;-82
2021/03/14 08:42:06;;;;;;;1.95;0.20;;;18.50;37.80;;;;;;5046345;28;20033;-81
2021/03/14 08:44:40;;;;;;;1.48;0.25;;;18.50;37.80;;;;;;5042066;28;20035;-81
2021/03/14 08:47:09;;;;;;;1.48;0.28;;;18.50;37.80;;;;;;5025530;28;20044;-82
2021/03/14 08:49:38;;;;;;;1.05;0.20;;;18.50;37.80;;;;;;5049405;28;20050;-81
2021/03/14 08:52:06;;;;;;;1.30;0.40;;;18.50;37.80;;;;;;5048924;28;20085;-82
2021/03/14 08:54:48;;;;;;;2.42;0.40;;;18.50;37.80;;;;;;5047933;28;20044;-83
2021/03/14 08:57:16;;;;;;;4.00;0.50;;;18.50;37.80;;;;;;5047504;28;20029;-83
2021/03/14 08:59:47;;;;;;;0.80;0.30;;;18.50;37.80;;;;;;5047874;28;20396;-81
2021/03/14 09:02:20;;;;;;;1.25;0.30;;;18.50;37.80;;;;;;5043827;28;20045;-82
2021/03/14 09:04:48;;;;;;;1.00;0.30;;;18.50;37.80;;;;;;5050027;28;20029;-82
2021/03/14 09:07:14;;;;;;;1.85;0.40;;;18.50;37.80;;;;;;5047990;28;20037;-82
2021/03/14 09:09:39;;;;;;;1.63;0.32;;;18.50;37.80;;;;;;5046170;28;20036;-82
2021/03/14 09:12:11;;;;;;;1.25;0.65;;;18.50;38.30;;;;;;5050749;28;20487;-81
2021/03/14 09:14:38;;;;;;;;;;;18.50;37.80;;;;;;5042347;28;20523;-81
2021/03/14 09:17:11;;;;;;;1.05;0.55;;;18.50;37.80;;;;;;5048909;28;19905;-81
2021/03/14 09:19:54;;;;;;;0.93;0.50;;;18.50;37.70;;;;;;5042479;28;20029;-82
2021/03/14 09:22:26;;;;;;;1.73;0.68;;;18.60;37.80;;;;;;5048246;28;20029;-80
2021/03/14 09:24:53;;;;;;;1.10;0.70;;;18.50;37.70;;;;;;5042821;28;20025;-81
2021/03/14 09:27:23;;;;;;;2.70;0.85;;;18.50;37.70;;;;;;5065472;28;20032;-80
2021/03/14 09:29:59;;;;;;;1.35;0.55;;;18.50;37.80;;;;;;5041290;28;20088;-80
2021/03/14 09:32:32;;;;;;;1.33;0.80;;;18.60;37.80;;;;;;5044775;28;20044;-80
2021/03/14 09:35:20;;;;;;;1.38;0.60;;;18.60;37.80;;;;;;5042764;28;20044;-80
2021/03/14 09:38:00;;;;;;;1.17;0.47;;;18.60;37.80;;;;;;5059445;28;20057;-80
2021/03/14 09:40:37;;;;;;;1.48;0.80;;;18.60;37.80;;;;;;5044881;28;20030;-80
2021/03/14 09:43:22;;;;;;;1.95;0.85;;;18.60;37.70;;;;;;5043424;28;20037;-81
2021/03/14 09:45:59;;;;;;;1.95;0.77;;;18.60;37.70;;;;;;5033087;28;20385;-81
2021/03/14 09:48:26;;;;;;;3.83;0.98;;;18.60;37.90;;;;;;5030829;28;20029;-81
2021/03/14 09:50:57;;;;;;;3.00;0.70;;;18.50;37.70;;;;;;5043225;28;20500;-81
2021/03/14 09:53:26;;;;;;;1.55;0.60;;;18.60;37.80;;;;;;5031169;28;20415;-80
2021/03/14 09:55:55;;;;;;;2.05;0.80;;;18.60;37.80;;;;;;5047401;28;20021;-80
2021/03/14 09:58:23;;;;;;;3.92;0.95;;;18.60;37.70;;;;;;5045663;28;20132;-80
2021/03/14 10:00:50;;;;;;;1.48;0.45;;;18.60;37.70;;;;;;5047282;28;20025;-80
2021/03/14 10:03:19;;;;;;;1.20;0.85;;;18.60;37.70;;;;;;5027104;28;20021;-80
2021/03/14 10:05:47;;;;;;;1.20;0.60;;;18.60;37.70;;;;;;5045387;28;20066;-80
2021/03/14 10:08:25;;;;;;;1.98;1.00;;;18.60;37.70;;;;;;5041666;28;20080;-80
2021/03/14 10:10:55;;;;;;;1.20;0.60;;;18.60;37.70;;;;;;5050992;28;20033;-81
2021/03/14 10:13:25;;;;;;;1.65;0.80;;;18.60;37.80;;;;;;5044445;28;20037;-81
2021/03/14 10:15:53;;;;;;;1.23;0.70;;;18.60;37.70;;;;;;5028708;28;20497;-81
2021/03/14 10:18:20;;;;;;;2.47;0.95;;;18.60;37.70;;;;;;5047178;28;20021;-81
2021/03/14 10:20:46;;;;;;;1.38;0.73;;;18.60;37.70;;;;;;5048353;28;20040;-80
2021/03/14 10:23:11;;;;;;;2.20;0.77;;;18.60;37.70;;;;;;5031984;28;20037;-81
2021/03/14 10:25:39;;;;;;;1.70;0.80;;;18.60;37.70;;;;;;5039770;28;20572;-81
2021/03/14 10:28:17;;;;;;;2.25;0.82;;;18.60;37.70;;;;;;5043607;28;20096;-81
2021/03/14 10:30:44;;;;;;;1.40;0.85;;;18.60;37.60;;;;;;5045893;28;20035;-80
2021/03/14 10:33:12;;;;;;;1.30;0.70;;;18.50;37.60;;;;;;5047801;28;20103;-81
2021/03/14 10:35:39;;;;;;;1.20;0.80;;;18.60;37.70;;;;;;5054024;28;20028;-83
2021/03/14 10:38:38;;;;;;;1.13;0.80;;;18.50;37.60;;;;;;5044514;28;20605;-83
2021/03/14 10:41:24;;;;;;;1.65;0.50;;;18.50;37.70;;;;;;5044260;28;20118;-83
2021/03/14 10:43:53;;;;;;;1.92;1.10;;;18.60;37.70;;;;;;5044066;28;20078;-82
2021/03/14 10:46:41;;;;;;;1.80;1.13;;;18.60;37.70;;;;;;5047062;28;20025;-84
2021/03/14 10:49:23;;;;;;;1.55;0.68;;;18.60;37.70;;;;;;5040464;28;20118;-83
2021/03/14 10:51:51;;;;;;;;;;;18.60;37.70;;;;;;5038848;28;20400;-82
2021/03/14 10:54:17;;;;;;;1.30;0.50;;;18.50;37.60;;;;;;5028497;28;19982;-83
2021/03/14 10:56:45;;;;;;;1.10;0.55;;;18.50;37.60;;;;;;5046944;28;20119;-81
2021/03/14 10:59:25;;;;;;;1.70;0.73;;;18.60;37.60;;;;;;5043161;28;20025;-81
2021/03/14 11:01:55;;;;;;;1.30;0.70;;;18.60;37.70;;;;;;5046413;28;20052;-81
2021/03/14 11:04:33;;;;;;;1.08;0.88;;;18.60;37.70;;;;;;5051874;28;20037;-81
2021/03/14 11:06:58;;;;;;;1.08;0.32;;;18.60;37.70;;;;;;5046074;28;20481;-80
2021/03/14 11:09:26;;;;;;;1.98;0.60;;;18.50;37.60;;;;;;5048806;28;20029;-81
2021/03/14 11:11:53;;;;;;;0.82;0.45;;;18.50;37.60;;;;;;5046387;28;20021;-80
2021/03/14 11:14:36;;;;;;;1.63;0.60;;;18.50;37.70;;;;;;5047057;28;20049;-80
2021/03/14 11:17:16;;;;;;;0.90;0.40;;;18.50;37.70;;;;;;5035348;28;20025;-81
2021/03/14 11:19:44;;;;;;;1.42;0.63;;;18.50;37.70;;;;;;5045492;28;20492;-81
2021/03/14 11:22:13;;;;;;;4.72;0.60;;;18.60;37.70;;;;;;5054765;28;20029;-80
2021/03/14 11:24:39;;;;;;;1.15;0.60;;;18.60;37.70;;;;;;5050615;28;20025;-81
2021/03/14 11:27:05;;;;;;;1.13;0.70;;;18.60;37.70;;;;;;5049490;28;20029;-81
2021/03/14 11:29:31;;;;;;;2.17;0.70;;;18.50;37.70;;;;;;5050225;28;20017;-80
2021/03/14 11:31:57;;;;;;;0.98;0.50;;;18.60;37.70;;;;;;5040414;28;20036;-81
2021/03/14 11:34:23;;;;;;;1.45;0.85;;;18.60;37.70;;;;;;5047568;28;20021;-81
2021/03/14 11:36:49;;;;;;;2.10;0.93;;;18.60;37.70;;;;;;5047490;28;20028;-80
2021/03/14 11:39:15;;;;;;;1.52;1.20;;;18.60;37.70;;;;;;5047109;28;20381;-81
2021/03/14 11:41:42;;;;;;;1.90;0.80;;;18.60;37.70;;;;;;5044881;28;20492;-81
2021/03/14 11:44:08;;;;;;;2.55;1.00;;;18.60;37.70;;;;;;5047547;28;20036;-81
2021/03/14 11:46:33;;;;;;;1.58;0.73;;;18.60;37.80;;;;;;5027035;28;20013;-81
2021/03/14 11:48:59;;;;;;;2.72;0.90;;;18.60;38.30;;;;;;5033489;28;20028;-81
2021/03/14 11:51:25;;;;;;;1.23;1.02;;;18.60;37.80;;;;;;5052176;28;20033;-81
2021/03/14 11:53:51;;;;;;;1.75;0.93;;;18.60;37.80;;;;;;5043103;28;20039;-80
2021/03/14 11:56:17;;;;;;;1.35;1.00;;;18.60;37.80;;;;;;5037435;28;20029;-81
2021/03/14 11:58:42;;;;;;;1.52;1.00;;;18.60;37.80;;;;;;5044785;28;20485;-81
2021/03/14 12:01:09;;;;;;;1.85;1.10;;;18.60;37.80;;;;;;5049588;28;20075;-81
2021/03/14 12:03:35;;;;;;;2.35;0.98;;;18.60;37.80;;;;;;5050514;28;20037;-81
2021/03/14 12:06:01;;;;;;;1.85;1.25;;;18.60;37.80;;;;;;5050147;28;20025;-80
2021/03/14 12:08:27;;;;;;;1.73;0.95;;;18.60;37.70;;;;;;5051702;28;20557;-81
2021/03/14 12:10:52;;;;;;;2.90;1.15;;;18.60;37.70;;;;;;5046821;28;20112;-80
2021/03/14 12:13:18;;;;;;;1.17;0.70;;;18.70;37.70;;;;;;5048222;28;20074;-81
2021/03/14 12:15:44;;;;;;;1.13;0.70;;;18.70;37.70;;;;;;5047511;28;20025;-81
2021/03/14 12:18:09;;;;;;;1.00;0.73;;;18.70;37.60;;;;;;5042387;28;20036;-81
2021/03/14 12:20:36;;;;;;;1.02;0.75;;;18.70;37.50;;;;;;5051832;28;20040;-81
2021/03/14 12:23:02;;;;;;;1.67;0.93;;;18.70;37.50;;;;;;5050611;28;20069;-81
2021/03/14 12:25:27;;;;;;;1.65;0.90;;;18.70;37.60;;;;;;5047530;28;20114;-81
2021/03/14 12:27:53;;;;;;;1.10;0.80;;;18.70;37.60;;;;;;5049542;28;20124;-81
2021/03/14 12:30:19;;;;;;;1.15;0.75;;;18.70;37.60;;;;;;5031874;28;20021;-80
2021/03/14 12:32:45;;;;;;;1.73;0.90;;;18.70;37.60;;;;;;5026249;28;20027;-81
2021/03/14 12:35:11;;;;;;;2.30;1.02;;;18.70;37.60;;;;;;5029864;28;20468;-80
2021/03/14 12:37:36;;;;;;;2.05;1.23;;;18.70;37.70;;;;;;5051677;28;20406;-81
2021/03/14 12:40:04;;;;;;;1.88;0.95;;;18.60;37.60;;;;;;5047480;28;20025;-80
2021/03/14 12:42:30;;;;;;;2.65;1.00;;;18.60;37.70;;;;;;5048555;28;20029;-81
2021/03/14 12:44:55;;;;;;;2.30;1.30;;;18.70;37.70;;;;;;5049051;28;20021;-80
2021/03/14 12:47:21;;;;;;;2.35;0.82;;;18.80;37.70;;;;;;5050768;28;20378;-81
2021/03/14 12:49:47;;;;;;;2.65;1.40;;;18.80;38.30;;;;;;5051747;28;20515;-81
2021/03/14 12:52:13;;;;;;;2.33;1.42;;;19.00;37.60;;;;;;5029994;28;20028;-81
2021/03/14 12:54:38;;;;;;;1.58;1.05;;;19.10;37.40;;;;;;5044320;28;20043;-81
2021/03/14 12:57:04;;;;;;;2.13;1.65;;;19.30;37.30;;;;;;5045091;28;20035;-81
2021/03/14 12:59:30;;;;;;;1.80;1.27;;;19.40;37.10;;;;;;5049033;28;20508;-81
2021/03/14 13:01:56;;;;;;;2.00;1.33;;;19.50;37.00;;;;;;5048856;28;20053;-81
2021/03/14 13:04:21;;;;;;;3.63;1.25;;;19.60;36.90;;;;;;5041000;28;20036;-81